THY8DP EHAM-LTFM
Flight info
| Callsign | THY8DP |
|---|---|
| Flight time | N/A |
| Altitude | 37000 |
| Route | EDUPO Z739 MISGO DCT GMH DCT EKSAK DCT SWALM DCT GASKA DCT ENITA DCT ETVIS DCT BUDEX DCT TEKNO DCT OGVUN DCT DUZLA DCT MAVIR DCT TIMUR L606 GASRU DCT RILEX RILE2A |
| Aircraft | B77W/H-SDE1E2E3FGHIJ2J3J4J5M1RWXY/LB1D1 |
Departure
| Time | 2026-05-07 15:05 |
|---|---|
| Airport | Amsterdam Airport Schiphol (EHAM) |
Arrival
| Time | N/A |
|---|---|
| Airport | İstanbul Airport (LTFM) |
| Time | Latitude | Longitude | Altitude | Speed | Heading |
|---|---|---|---|---|---|
| 2026-05-07 13:56 | 52.31341 | 4.76992 | 8 ft | 0 kts | 303° |
| 2026-05-07 14:46 | 52.31340 | 4.76998 | 8 ft | 0 kts | 334° |
| 2026-05-07 14:47 | 52.31337 | 4.77000 | 9 ft | 0 kts | 334° |
| 2026-05-07 14:47 | 52.31333 | 4.77001 | 9 ft | 0 kts | 308° |
| 2026-05-07 14:47 | 52.31330 | 4.77004 | 8 ft | 0 kts | 290° |
| 2026-05-07 14:47 | 52.31329 | 4.77009 | 8 ft | 0 kts | 291° |
| 2026-05-07 14:48 | 52.31328 | 4.77016 | 9 ft | 1 kts | 297° |
| 2026-05-07 14:48 | 52.31325 | 4.77026 | 8 ft | 1 kts | 297° |
| 2026-05-07 14:48 | 52.31322 | 4.77035 | 9 ft | 1 kts | 301° |
| 2026-05-07 14:48 | 52.31319 | 4.77044 | 10 ft | 1 kts | 303° |
| 2026-05-07 14:49 | 52.31315 | 4.77053 | 10 ft | 1 kts | 302° |
| 2026-05-07 14:49 | 52.31312 | 4.77062 | 10 ft | 1 kts | 303° |
| 2026-05-07 14:49 | 52.31304 | 4.77080 | 9 ft | 2 kts | 315° |
| 2026-05-07 14:49 | 52.31294 | 4.77093 | 9 ft | 2 kts | 324° |
| 2026-05-07 14:50 | 52.31283 | 4.77106 | 10 ft | 2 kts | 350° |
| 2026-05-07 14:50 | 52.31279 | 4.77108 | 10 ft | 0 kts | 12° |
| 2026-05-07 14:54 | 52.31290 | 4.77113 | 7 ft | 4 kts | 14° |
| 2026-05-07 14:54 | 52.31340 | 4.77150 | 9 ft | 12 kts | 29° |
| 2026-05-07 14:54 | 52.31436 | 4.77201 | 11 ft | 15 kts | 1° |
| 2026-05-07 14:54 | 52.31540 | 4.77176 | 14 ft | 15 kts | 323° |
| 2026-05-07 14:55 | 52.31567 | 4.77013 | 15 ft | 15 kts | 267° |
| 2026-05-07 14:55 | 52.31562 | 4.76838 | 16 ft | 15 kts | 267° |
| 2026-05-07 14:55 | 52.31556 | 4.76667 | 17 ft | 11 kts | 267° |
| 2026-05-07 14:55 | 52.31552 | 4.76542 | 21 ft | 11 kts | 267° |
| 2026-05-07 14:56 | 52.31549 | 4.76444 | 23 ft | 0 kts | 267° |
| 2026-05-07 14:56 | 52.31549 | 4.76424 | 24 ft | 6 kts | 267° |
| 2026-05-07 14:56 | 52.31546 | 4.76332 | 26 ft | 9 kts | 266° |
| 2026-05-07 14:57 | 52.31542 | 4.76224 | 21 ft | 10 kts | 268° |
| 2026-05-07 14:57 | 52.31537 | 4.76112 | 22 ft | 10 kts | 266° |
| 2026-05-07 14:57 | 52.31533 | 4.75998 | 27 ft | 10 kts | 266° |
| 2026-05-07 14:57 | 52.31528 | 4.75879 | 23 ft | 12 kts | 266° |
| 2026-05-07 14:58 | 52.31523 | 4.75742 | 17 ft | 13 kts | 266° |
| 2026-05-07 14:58 | 52.31522 | 4.75716 | 16 ft | 2 kts | 266° |
| 2026-05-07 14:58 | 52.31520 | 4.75645 | 16 ft | 10 kts | 266° |
| 2026-05-07 14:58 | 52.31515 | 4.75503 | 17 ft | 9 kts | 266° |
| 2026-05-07 14:59 | 52.31511 | 4.75399 | 16 ft | 11 kts | 268° |
| 2026-05-07 14:59 | 52.31508 | 4.75289 | 14 ft | 3 kts | 266° |
| 2026-05-07 14:59 | 52.31505 | 4.75207 | 14 ft | 11 kts | 266° |
| 2026-05-07 14:59 | 52.31501 | 4.75093 | 16 ft | 9 kts | 267° |
| 2026-05-07 15:00 | 52.31499 | 4.75026 | 18 ft | 3 kts | 267° |
| 2026-05-07 15:00 | 52.31497 | 4.74953 | 19 ft | 9 kts | 267° |
| 2026-05-07 15:00 | 52.31493 | 4.74825 | 19 ft | 7 kts | 267° |
| 2026-05-07 15:00 | 52.31497 | 4.74716 | 20 ft | 8 kts | 292° |
| 2026-05-07 15:01 | 52.31533 | 4.74673 | 24 ft | 8 kts | 336° |
| 2026-05-07 15:01 | 52.31598 | 4.74661 | 25 ft | 11 kts | 2° |
| 2026-05-07 15:01 | 52.31613 | 4.74666 | 27 ft | 1 kts | 16° |
| 2026-05-07 15:02 | 52.31631 | 4.74676 | 27 ft | 6 kts | 22° |
| 2026-05-07 15:03 | 52.31664 | 4.74750 | 28 ft | 12 kts | 72° |
| 2026-05-07 15:03 | 52.31669 | 4.74793 | 26 ft | 1 kts | 82° |
| 2026-05-07 15:03 | 52.31670 | 4.74809 | 25 ft | 0 kts | 82° |
| 2026-05-07 15:04 | 52.31671 | 4.74815 | 25 ft | 2 kts | 84° |
| 2026-05-07 15:04 | 52.31671 | 4.74817 | 25 ft | 0 kts | 84° |
| 2026-05-07 15:05 | 52.31680 | 4.75048 | 18 ft | 54 kts | 87° |
| 2026-05-07 15:05 | 52.31722 | 4.76135 | 26 ft | 147 kts | 86° |
| 2026-05-07 15:05 | 52.31765 | 4.78221 | 623 ft | 201 kts | 86° |
| 2026-05-07 15:05 | 52.31847 | 4.80506 | 2144 ft | 196 kts | 83° |
| 2026-05-07 15:06 | 52.31957 | 4.82692 | 3117 ft | 195 kts | 85° |
| 2026-05-07 15:06 | 52.32046 | 4.84998 | 3577 ft | 214 kts | 86° |
| 2026-05-07 15:06 | 52.32084 | 4.87499 | 4179 ft | 221 kts | 95° |
| 2026-05-07 15:06 | 52.31611 | 4.89897 | 4756 ft | 229 kts | 122° |
| 2026-05-07 15:07 | 52.31027 | 4.91363 | 5149 ft | 234 kts | 122° |
| 2026-05-07 15:07 | 52.30264 | 4.93723 | 6014 ft | 231 kts | 114° |
| 2026-05-07 15:07 | 52.29714 | 4.96115 | 7036 ft | 219 kts | 114° |
| 2026-05-07 15:07 | 52.28848 | 4.99084 | 7850 ft | 225 kts | 114° |
| 2026-05-07 15:08 | 52.28322 | 5.01583 | 8243 ft | 239 kts | 105° |
| 2026-05-07 15:08 | 52.28078 | 5.03381 | 8669 ft | 242 kts | 103° |
| 2026-05-07 15:08 | 52.27699 | 5.06182 | 9010 ft | 265 kts | 104° |
| 2026-05-07 15:08 | 52.27245 | 5.09169 | 9416 ft | 282 kts | 106° |
| 2026-05-07 15:09 | 52.26727 | 5.12362 | 10081 ft | 292 kts | 106° |
| 2026-05-07 15:09 | 52.26174 | 5.15621 | 10547 ft | 309 kts | 106° |
| 2026-05-07 15:09 | 52.25558 | 5.19165 | 10750 ft | 337 kts | 107° |
| 2026-05-07 15:09 | 52.24886 | 5.22989 | 10967 ft | 364 kts | 107° |
| 2026-05-07 15:10 | 52.24029 | 5.26924 | 11359 ft | 375 kts | 119° |
| 2026-05-07 15:10 | 52.22568 | 5.30422 | 12099 ft | 380 kts | 129° |
| 2026-05-07 15:10 | 52.20946 | 5.33880 | 13126 ft | 384 kts | 127° |
| 2026-05-07 15:10 | 52.19353 | 5.37406 | 14054 ft | 389 kts | 126° |
| 2026-05-07 15:11 | 52.17757 | 5.41017 | 14901 ft | 395 kts | 126° |
| 2026-05-07 15:11 | 52.16159 | 5.44674 | 15740 ft | 400 kts | 126° |
| 2026-05-07 15:11 | 52.14535 | 5.48403 | 16541 ft | 406 kts | 126° |
| 2026-05-07 15:11 | 52.12892 | 5.52171 | 17418 ft | 410 kts | 126° |
| 2026-05-07 15:12 | 52.11228 | 5.55977 | 18281 ft | 415 kts | 126° |
| 2026-05-07 15:12 | 52.09545 | 5.59820 | 18991 ft | 420 kts | 126° |
| 2026-05-07 15:12 | 52.07842 | 5.63700 | 19710 ft | 425 kts | 126° |
| 2026-05-07 15:12 | 52.06103 | 5.67642 | 20456 ft | 429 kts | 127° |
| 2026-05-07 15:13 | 52.04253 | 5.71404 | 21154 ft | 433 kts | 131° |
| 2026-05-07 15:13 | 52.02241 | 5.75071 | 21868 ft | 437 kts | 133° |
| 2026-05-07 15:13 | 52.00204 | 5.78753 | 22553 ft | 441 kts | 133° |
| 2026-05-07 15:13 | 51.98164 | 5.82522 | 23234 ft | 446 kts | 132° |
| 2026-05-07 15:14 | 51.96119 | 5.86342 | 23849 ft | 450 kts | 132° |
| 2026-05-07 15:14 | 51.94067 | 5.90173 | 24405 ft | 454 kts | 132° |
| 2026-05-07 15:14 | 51.91977 | 5.94058 | 24962 ft | 457 kts | 132° |
| 2026-05-07 15:14 | 51.89889 | 5.97940 | 25055 ft | 459 kts | 132° |
| 2026-05-07 15:15 | 51.87783 | 6.01856 | 25054 ft | 459 kts | 133° |
| 2026-05-07 15:15 | 51.85680 | 6.05752 | 25050 ft | 459 kts | 133° |
| 2026-05-07 15:15 | 51.83569 | 6.09637 | 25054 ft | 459 kts | 133° |
| 2026-05-07 15:15 | 51.81483 | 6.13449 | 25052 ft | 459 kts | 133° |
| 2026-05-07 15:16 | 51.79366 | 6.17313 | 25052 ft | 459 kts | 133° |
| 2026-05-07 15:16 | 51.77253 | 6.21170 | 25043 ft | 459 kts | 133° |
| 2026-05-07 15:16 | 51.75136 | 6.25031 | 25042 ft | 459 kts | 133° |
| 2026-05-07 15:16 | 51.73027 | 6.28883 | 25048 ft | 459 kts | 133° |
| 2026-05-07 15:17 | 51.70909 | 6.32746 | 25047 ft | 459 kts | 133° |
| 2026-05-07 15:17 | 51.68771 | 6.36644 | 25048 ft | 458 kts | 133° |
| 2026-05-07 15:17 | 51.66651 | 6.40503 | 25050 ft | 458 kts | 133° |
| 2026-05-07 15:17 | 51.64540 | 6.44337 | 25050 ft | 458 kts | 133° |
| 2026-05-07 15:18 | 51.62449 | 6.48126 | 25042 ft | 458 kts | 133° |
| 2026-05-07 15:18 | 51.60295 | 6.52023 | 25045 ft | 459 kts | 133° |
| 2026-05-07 15:18 | 51.58185 | 6.55837 | 25048 ft | 459 kts | 133° |
| 2026-05-07 15:18 | 51.56084 | 6.59629 | 25051 ft | 459 kts | 133° |
| 2026-05-07 15:19 | 51.53955 | 6.63468 | 25051 ft | 459 kts | 133° |
| 2026-05-07 15:19 | 51.51824 | 6.67303 | 25050 ft | 460 kts | 133° |
| 2026-05-07 15:19 | 51.49691 | 6.71140 | 25049 ft | 460 kts | 133° |
| 2026-05-07 15:19 | 51.47565 | 6.74959 | 25048 ft | 460 kts | 133° |
| 2026-05-07 15:20 | 51.45430 | 6.78786 | 25052 ft | 460 kts | 133° |
| 2026-05-07 15:20 | 51.43301 | 6.82626 | 25050 ft | 460 kts | 131° |
| 2026-05-07 15:20 | 51.41397 | 6.86736 | 25045 ft | 461 kts | 123° |
| 2026-05-07 15:20 | 51.39808 | 6.91192 | 25050 ft | 461 kts | 118° |
| 2026-05-07 15:21 | 51.38516 | 6.95897 | 25045 ft | 462 kts | 111° |
| 2026-05-07 15:21 | 51.37438 | 7.00744 | 25050 ft | 462 kts | 110° |
| 2026-05-07 15:21 | 51.36370 | 7.05595 | 25050 ft | 462 kts | 110° |
| 2026-05-07 15:21 | 51.35311 | 7.10379 | 25051 ft | 462 kts | 110° |
| 2026-05-07 15:22 | 51.34224 | 7.15233 | 25051 ft | 462 kts | 110° |
| 2026-05-07 15:22 | 51.33131 | 7.20069 | 25042 ft | 463 kts | 111° |
| 2026-05-07 15:22 | 51.32025 | 7.24924 | 25051 ft | 463 kts | 111° |
| 2026-05-07 15:22 | 51.30920 | 7.29750 | 25059 ft | 463 kts | 111° |
| 2026-05-07 15:23 | 51.29821 | 7.34554 | 25300 ft | 462 kts | 111° |
| 2026-05-07 15:23 | 51.28701 | 7.39401 | 25571 ft | 466 kts | 111° |
| 2026-05-07 15:23 | 51.27575 | 7.44273 | 25742 ft | 469 kts | 111° |
| 2026-05-07 15:23 | 51.26446 | 7.49157 | 26132 ft | 470 kts | 111° |
| 2026-05-07 15:24 | 51.25311 | 7.54058 | 26411 ft | 472 kts | 111° |
| 2026-05-07 15:24 | 51.24166 | 7.58993 | 26697 ft | 474 kts | 111° |
| 2026-05-07 15:24 | 51.23015 | 7.63943 | 26982 ft | 475 kts | 111° |
| 2026-05-07 15:24 | 51.21877 | 7.68823 | 27271 ft | 477 kts | 111° |
| 2026-05-07 15:25 | 51.20719 | 7.73778 | 27562 ft | 479 kts | 111° |
| 2026-05-07 15:25 | 51.19537 | 7.78826 | 27861 ft | 481 kts | 111° |
| 2026-05-07 15:25 | 51.18365 | 7.83826 | 28166 ft | 482 kts | 111° |
| 2026-05-07 15:25 | 51.17200 | 7.88774 | 28463 ft | 484 kts | 111° |
| 2026-05-07 15:26 | 51.16046 | 7.93832 | 28767 ft | 485 kts | 109° |
| 2026-05-07 15:26 | 51.14940 | 7.98934 | 29085 ft | 487 kts | 109° |
| 2026-05-07 15:26 | 51.13853 | 8.04043 | 29410 ft | 489 kts | 109° |
| 2026-05-07 15:26 | 51.12759 | 8.09180 | 29725 ft | 491 kts | 109° |
| 2026-05-07 15:27 | 51.11650 | 8.14345 | 30028 ft | 492 kts | 109° |
| 2026-05-07 15:27 | 51.11527 | 8.14917 | 30076 ft | 493 kts | 109° |
| 2026-05-07 15:29 | 51.11094 | 8.16918 | 30197 ft | 493 kts | 109° |
| 2026-05-07 15:29 | 51.09971 | 8.22083 | 30446 ft | 494 kts | 109° |
| 2026-05-07 15:29 | 51.08840 | 8.27254 | 30717 ft | 496 kts | 109° |
| 2026-05-07 15:29 | 51.07704 | 8.32430 | 30993 ft | 496 kts | 109° |
| 2026-05-07 15:30 | 51.06563 | 8.37617 | 31271 ft | 497 kts | 109° |
| 2026-05-07 15:30 | 51.05421 | 8.42803 | 31547 ft | 497 kts | 109° |
| 2026-05-07 15:30 | 51.04283 | 8.47955 | 31972 ft | 495 kts | 109° |
| 2026-05-07 15:30 | 51.03135 | 8.53090 | 32601 ft | 489 kts | 110° |
| 2026-05-07 15:31 | 51.01766 | 8.58023 | 33029 ft | 488 kts | 117° |
| 2026-05-07 15:31 | 51.00095 | 8.62715 | 33388 ft | 489 kts | 122° |
| 2026-05-07 15:31 | 50.98139 | 8.67154 | 33704 ft | 489 kts | 128° |
| 2026-05-07 15:31 | 50.96056 | 8.71349 | 34061 ft | 490 kts | 128° |
| 2026-05-07 15:32 | 50.93944 | 8.75579 | 34378 ft | 489 kts | 128° |
| 2026-05-07 15:32 | 50.91835 | 8.79821 | 34696 ft | 489 kts | 128° |
| 2026-05-07 15:32 | 50.89742 | 8.84055 | 34978 ft | 489 kts | 128° |
| 2026-05-07 15:32 | 50.87653 | 8.88300 | 35254 ft | 489 kts | 128° |
| 2026-05-07 15:33 | 50.85560 | 8.92558 | 35547 ft | 489 kts | 128° |
| 2026-05-07 15:33 | 50.83468 | 8.96811 | 35806 ft | 489 kts | 128° |
| 2026-05-07 15:33 | 50.81382 | 9.01048 | 36075 ft | 489 kts | 129° |
| 2026-05-07 15:33 | 50.79282 | 9.05302 | 36339 ft | 489 kts | 129° |
| 2026-05-07 15:34 | 50.77187 | 9.09540 | 36606 ft | 489 kts | 129° |
| 2026-05-07 15:34 | 50.75090 | 9.13774 | 36829 ft | 489 kts | 129° |
| 2026-05-07 15:34 | 50.73031 | 9.17937 | 36989 ft | 491 kts | 128° |
| 2026-05-07 15:34 | 50.71054 | 9.22427 | 37054 ft | 494 kts | 122° |
| 2026-05-07 15:35 | 50.67813 | 9.31934 | 37047 ft | 493 kts | 118° |
| 2026-05-07 15:35 | 50.64688 | 9.41466 | 37041 ft | 488 kts | 118° |
| 2026-05-07 15:36 | 50.61534 | 9.50930 | 37047 ft | 487 kts | 119° |
| 2026-05-07 15:36 | 50.58359 | 9.60337 | 37053 ft | 486 kts | 119° |
| 2026-05-07 15:37 | 50.55173 | 9.69730 | 37050 ft | 487 kts | 119° |
| 2026-05-07 15:37 | 50.51973 | 9.79133 | 37046 ft | 488 kts | 119° |
| 2026-05-07 15:38 | 50.48757 | 9.88554 | 37052 ft | 490 kts | 119° |
| 2026-05-07 15:38 | 50.45526 | 9.97984 | 37053 ft | 491 kts | 119° |
| 2026-05-07 15:39 | 50.42299 | 10.07371 | 37037 ft | 492 kts | 120° |
| 2026-05-07 15:39 | 50.39034 | 10.16833 | 37044 ft | 493 kts | 120° |
| 2026-05-07 15:40 | 50.35757 | 10.26296 | 37041 ft | 494 kts | 119° |
| 2026-05-07 15:40 | 50.32826 | 10.36012 | 37052 ft | 494 kts | 115° |
| 2026-05-07 15:41 | 50.30060 | 10.45863 | 37039 ft | 494 kts | 115° |
| 2026-05-07 15:41 | 50.27280 | 10.55701 | 37034 ft | 494 kts | 115° |
| 2026-05-07 15:42 | 50.24497 | 10.65435 | 37032 ft | 493 kts | 115° |
| 2026-05-07 15:42 | 50.21684 | 10.75201 | 37033 ft | 493 kts | 115° |
| 2026-05-07 15:43 | 50.18863 | 10.84954 | 37031 ft | 493 kts | 115° |
| 2026-05-07 15:43 | 50.16036 | 10.94691 | 37033 ft | 493 kts | 115° |
| 2026-05-07 15:44 | 50.13201 | 11.04417 | 37029 ft | 492 kts | 115° |
| 2026-05-07 15:44 | 50.10359 | 11.14133 | 37025 ft | 492 kts | 116° |
| 2026-05-07 15:45 | 50.07508 | 11.23837 | 37024 ft | 493 kts | 116° |
| 2026-05-07 15:45 | 50.04407 | 11.33362 | 37036 ft | 493 kts | 120° |
| 2026-05-07 15:46 | 49.99475 | 11.47326 | 37014 ft | 493 kts | 120° |
| 2026-05-07 15:47 | 49.96191 | 11.56711 | 37021 ft | 494 kts | 120° |
| 2026-05-07 15:47 | 49.92936 | 11.66101 | 37023 ft | 494 kts | 120° |
| 2026-05-07 15:48 | 49.89668 | 11.75480 | 37011 ft | 495 kts | 120° |
| 2026-05-07 15:48 | 49.86377 | 11.84878 | 37011 ft | 495 kts | 120° |
| 2026-05-07 15:49 | 49.83084 | 11.94247 | 37017 ft | 494 kts | 120° |
| 2026-05-07 15:49 | 49.79814 | 12.03517 | 37008 ft | 494 kts | 120° |
| 2026-05-07 15:50 | 49.76516 | 12.12836 | 37005 ft | 494 kts | 120° |
| 2026-05-07 15:50 | 49.73209 | 12.22144 | 37010 ft | 494 kts | 120° |
| 2026-05-07 15:51 | 49.69898 | 12.31432 | 37019 ft | 493 kts | 121° |
| 2026-05-07 15:51 | 49.66579 | 12.40708 | 37019 ft | 493 kts | 121° |
| 2026-05-07 15:52 | 49.63252 | 12.49973 | 37001 ft | 493 kts | 121° |
| 2026-05-07 15:52 | 49.59920 | 12.59220 | 37021 ft | 493 kts | 121° |
| 2026-05-07 15:53 | 49.56604 | 12.68388 | 37008 ft | 492 kts | 121° |
| 2026-05-07 15:53 | 49.53261 | 12.77599 | 37014 ft | 492 kts | 121° |
| 2026-05-07 15:54 | 49.49913 | 12.86790 | 37011 ft | 492 kts | 121° |
| 2026-05-07 15:54 | 49.47127 | 12.94413 | 37011 ft | 492 kts | 121° |
| 2026-05-07 15:55 | 49.43764 | 13.03588 | 37009 ft | 493 kts | 121° |
| 2026-05-07 15:55 | 49.40377 | 13.12792 | 37000 ft | 496 kts | 121° |
| 2026-05-07 15:56 | 49.36972 | 13.22013 | 36999 ft | 497 kts | 121° |
| 2026-05-07 15:56 | 49.33557 | 13.31232 | 36999 ft | 496 kts | 122° |
| 2026-05-07 15:57 | 49.30145 | 13.40408 | 37009 ft | 495 kts | 122° |
| 2026-05-07 15:57 | 49.26936 | 13.49010 | 36992 ft | 494 kts | 122° |
| 2026-05-07 15:58 | 49.23514 | 13.58148 | 37001 ft | 494 kts | 122° |
| 2026-05-07 15:58 | 49.20113 | 13.67201 | 36998 ft | 494 kts | 122° |
| 2026-05-07 15:59 | 49.16685 | 13.76296 | 36997 ft | 493 kts | 122° |
| 2026-05-07 15:59 | 49.13191 | 13.85287 | 36983 ft | 485 kts | 135° |
| 2026-05-07 15:59 | 49.10861 | 13.88850 | 37007 ft | 468 kts | 153° |
| 2026-05-07 16:00 | 49.08119 | 13.91434 | 36907 ft | 460 kts | 156° |
| 2026-05-07 16:00 | 49.05544 | 13.94292 | 36940 ft | 458 kts | 143° |
| 2026-05-07 16:00 | 49.03806 | 13.98302 | 36992 ft | 465 kts | 99° |
| 2026-05-07 16:00 | 49.04322 | 14.03080 | 36796 ft | 467 kts | 65° |
| 2026-05-07 16:01 | 49.05513 | 14.07506 | 37342 ft | 452 kts | 76° |
| 2026-05-07 16:01 | 49.05908 | 14.12271 | 37140 ft | 457 kts | 98° |
| 2026-05-07 16:01 | 49.05162 | 14.16931 | 37114 ft | 453 kts | 119° |
| 2026-05-07 16:01 | 49.03413 | 14.20882 | 37052 ft | 451 kts | 137° |
| 2026-05-07 16:02 | 49.01065 | 14.24159 | 36995 ft | 454 kts | 144° |
| 2026-05-07 16:02 | 48.96054 | 14.30059 | 36992 ft | 466 kts | 143° |
| 2026-05-07 16:03 | 48.91449 | 14.37203 | 36987 ft | 481 kts | 131° |
| 2026-05-07 16:03 | 48.87542 | 14.45623 | 36989 ft | 493 kts | 126° |
| 2026-05-07 16:04 | 48.83942 | 14.54509 | 36975 ft | 496 kts | 124° |
| 2026-05-07 16:04 | 48.80372 | 14.63402 | 36958 ft | 496 kts | 125° |
| 2026-05-07 16:05 | 48.76729 | 14.72282 | 36961 ft | 495 kts | 126° |
| 2026-05-07 16:05 | 48.73046 | 14.81123 | 36967 ft | 495 kts | 126° |
| 2026-05-07 16:06 | 48.69358 | 14.89928 | 36965 ft | 494 kts | 126° |
| 2026-05-07 16:06 | 48.65671 | 14.98709 | 36960 ft | 493 kts | 126° |
| 2026-05-07 16:07 | 48.61987 | 15.07459 | 36970 ft | 493 kts | 126° |
| 2026-05-07 16:07 | 48.58332 | 15.16117 | 36964 ft | 492 kts | 126° |
| 2026-05-07 16:08 | 48.54643 | 15.24824 | 36956 ft | 492 kts | 126° |
| 2026-05-07 16:08 | 48.50954 | 15.33505 | 36943 ft | 491 kts | 127° |
| 2026-05-07 16:09 | 48.47258 | 15.42174 | 36960 ft | 491 kts | 127° |
| 2026-05-07 16:09 | 48.43553 | 15.50833 | 36958 ft | 492 kts | 127° |
| 2026-05-07 16:10 | 48.39837 | 15.59492 | 36962 ft | 493 kts | 127° |
| 2026-05-07 16:10 | 48.36110 | 15.68147 | 36932 ft | 493 kts | 127° |
| 2026-05-07 16:11 | 48.32371 | 15.76807 | 36961 ft | 493 kts | 127° |
| 2026-05-07 16:11 | 48.28623 | 15.85457 | 36959 ft | 493 kts | 127° |
| 2026-05-07 16:12 | 48.24873 | 15.94084 | 36964 ft | 493 kts | 128° |
| 2026-05-07 16:12 | 48.21115 | 16.02704 | 36937 ft | 493 kts | 128° |
| 2026-05-07 16:13 | 48.17364 | 16.11280 | 36962 ft | 491 kts | 128° |
| 2026-05-07 16:13 | 48.13636 | 16.19774 | 36961 ft | 491 kts | 128° |
| 2026-05-07 16:14 | 48.09876 | 16.28317 | 36973 ft | 492 kts | 128° |
| 2026-05-07 16:14 | 48.06102 | 16.36862 | 36964 ft | 492 kts | 128° |
| 2026-05-07 16:15 | 48.02324 | 16.45392 | 36961 ft | 492 kts | 128° |
| 2026-05-07 16:15 | 47.98541 | 16.53906 | 36966 ft | 491 kts | 128° |
| 2026-05-07 16:16 | 47.94756 | 16.62401 | 36972 ft | 492 kts | 128° |
| 2026-05-07 16:16 | 47.91006 | 16.70801 | 37874 ft | 454 kts | 127° |
| 2026-05-07 16:16 | 47.89322 | 16.74701 | 38596 ft | 449 kts | 128° |
| 2026-05-07 16:17 | 47.87486 | 16.78632 | 37610 ft | 473 kts | 129° |
| 2026-05-07 16:17 | 47.85575 | 16.82630 | 37386 ft | 480 kts | 130° |
| 2026-05-07 16:17 | 47.83667 | 16.86769 | 37252 ft | 488 kts | 128° |
| 2026-05-07 16:17 | 47.81780 | 16.91019 | 37122 ft | 495 kts | 128° |
| 2026-05-07 16:18 | 47.79913 | 16.95261 | 37034 ft | 497 kts | 128° |
| 2026-05-07 16:18 | 47.76120 | 17.03805 | 36971 ft | 493 kts | 129° |
| 2026-05-07 16:19 | 47.72318 | 17.12226 | 36959 ft | 488 kts | 129° |
| 2026-05-07 16:19 | 47.68529 | 17.20539 | 36947 ft | 484 kts | 130° |
| 2026-05-07 16:20 | 47.64760 | 17.28780 | 36957 ft | 481 kts | 130° |
| 2026-05-07 16:20 | 47.60996 | 17.36990 | 36964 ft | 480 kts | 130° |
| 2026-05-07 16:21 | 47.57234 | 17.45175 | 36947 ft | 481 kts | 130° |
| 2026-05-07 16:21 | 47.53444 | 17.53390 | 36983 ft | 484 kts | 130° |
| 2026-05-07 16:22 | 47.49652 | 17.61585 | 36969 ft | 487 kts | 130° |
| 2026-05-07 16:22 | 47.47799 | 17.65600 | 37810 ft | 461 kts | 130° |
| 2026-05-07 16:22 | 47.45945 | 17.69612 | 37157 ft | 478 kts | 130° |
| 2026-05-07 16:23 | 47.42133 | 17.77774 | 37027 ft | 488 kts | 130° |
| 2026-05-07 16:23 | 47.38274 | 17.86062 | 36999 ft | 491 kts | 130° |
| 2026-05-07 16:24 | 47.34333 | 17.94281 | 36981 ft | 490 kts | 131° |
| 2026-05-07 16:24 | 47.30377 | 18.02387 | 36973 ft | 489 kts | 131° |
| 2026-05-07 16:25 | 47.26412 | 18.10521 | 36953 ft | 487 kts | 131° |
| 2026-05-07 16:25 | 47.22470 | 18.18610 | 36981 ft | 485 kts | 131° |
| 2026-05-07 16:26 | 47.18532 | 18.26676 | 36979 ft | 485 kts | 131° |
| 2026-05-07 16:26 | 47.14599 | 18.34706 | 36981 ft | 484 kts | 131° |
| 2026-05-07 16:27 | 47.10653 | 18.42722 | 36965 ft | 484 kts | 131° |
| 2026-05-07 16:27 | 47.06709 | 18.50707 | 36989 ft | 484 kts | 132° |
| 2026-05-07 16:28 | 47.02748 | 18.58705 | 36987 ft | 485 kts | 132° |
| 2026-05-07 16:28 | 46.98777 | 18.66718 | 36991 ft | 486 kts | 131° |
| 2026-05-07 16:29 | 46.94797 | 18.74736 | 36973 ft | 486 kts | 131° |
| 2026-05-07 16:29 | 46.90807 | 18.82731 | 36996 ft | 487 kts | 131° |
| 2026-05-07 16:30 | 46.86839 | 18.90690 | 35703 ft | 465 kts | 130° |
| 2026-05-07 16:30 | 46.85019 | 18.95041 | 33582 ft | 509 kts | 128° |
| 2026-05-07 16:30 | 46.83162 | 18.99378 | 34452 ft | 493 kts | 129° |
| 2026-05-07 16:30 | 46.81321 | 19.03385 | 34587 ft | 486 kts | 130° |
| 2026-05-07 16:31 | 46.79386 | 19.07419 | 34791 ft | 483 kts | 131° |
| 2026-05-07 16:31 | 46.77441 | 19.11384 | 35279 ft | 462 kts | 131° |
| 2026-05-07 16:31 | 46.75600 | 19.15172 | 36106 ft | 455 kts | 130° |
| 2026-05-07 16:31 | 46.73850 | 19.18945 | 36820 ft | 441 kts | 128° |
| 2026-05-07 16:32 | 46.72196 | 19.22714 | 36864 ft | 443 kts | 128° |
| 2026-05-07 16:32 | 46.70553 | 19.26464 | 37028 ft | 434 kts | 129° |
| 2026-05-07 16:32 | 46.68866 | 19.30081 | 37071 ft | 426 kts | 136° |
| 2026-05-07 16:32 | 46.66795 | 19.32826 | 37324 ft | 404 kts | 148° |
| 2026-05-07 16:33 | 46.64487 | 19.35321 | 36951 ft | 413 kts | 149° |
| 2026-05-07 16:33 | 46.62290 | 19.38027 | 37140 ft | 415 kts | 142° |
| 2026-05-07 16:33 | 46.60223 | 19.40916 | 37573 ft | 400 kts | 142° |
| 2026-05-07 16:33 | 46.58293 | 19.43637 | 38370 ft | 383 kts | 144° |
| 2026-05-07 16:34 | 46.56337 | 19.46543 | 36787 ft | 429 kts | 137° |
| 2026-05-07 16:34 | 46.54320 | 19.49896 | 36018 ft | 451 kts | 135° |
| 2026-05-07 16:34 | 46.52318 | 19.53500 | 35610 ft | 466 kts | 133° |
| 2026-05-07 16:34 | 46.50335 | 19.57298 | 35388 ft | 473 kts | 131° |
| 2026-05-07 16:35 | 46.48390 | 19.61214 | 35169 ft | 480 kts | 128° |
| 2026-05-07 16:35 | 46.46613 | 19.65243 | 35342 ft | 470 kts | 127° |
| 2026-05-07 16:35 | 46.46165 | 19.66297 | 35488 ft | 468 kts | 126° |